sensor_id;sensor_type;location;lat;lon;timestamp;pressure;altitude;pressure_sealevel;temperature
68939;BMP180;59064;45.294;11.816;2022-11-20T00:00:46;100551.60;;;9.60
68939;BMP180;59064;45.294;11.816;2022-11-20T00:03:12;100561.20;;;9.50
68939;BMP180;59064;45.294;11.816;2022-11-20T00:05:38;100561.80;;;9.50
68939;BMP180;59064;45.294;11.816;2022-11-20T00:08:04;100558.60;;;9.50
68939;BMP180;59064;45.294;11.816;2022-11-20T00:10:29;100550.60;;;9.50
68939;BMP180;59064;45.294;11.816;2022-11-20T00:12:55;100554.60;;;9.50
68939;BMP180;59064;45.294;11.816;2022-11-20T00:15:20;100554.00;;;9.50
68939;BMP180;59064;45.294;11.816;2022-11-20T00:17:46;100557.60;;;9.40
68939;BMP180;59064;45.294;11.816;2022-11-20T00:20:11;100565.00;;;9.40
68939;BMP180;59064;45.294;11.816;2022-11-20T00:22:38;100566.60;;;9.40
68939;BMP180;59064;45.294;11.816;2022-11-20T00:25:04;100564.80;;;9.40
68939;BMP180;59064;45.294;11.816;2022-11-20T00:27:29;100565.00;;;9.40
68939;BMP180;59064;45.294;11.816;2022-11-20T00:29:55;100565.20;;;9.42
68939;BMP180;59064;45.294;11.816;2022-11-20T00:32:20;100560.00;;;9.50
68939;BMP180;59064;45.294;11.816;2022-11-20T00:34:46;100563.80;;;9.50
68939;BMP180;59064;45.294;11.816;2022-11-20T00:37:11;100562.80;;;9.60
68939;BMP180;59064;45.294;11.816;2022-11-20T00:39:37;100566.40;;;9.60
68939;BMP180;59064;45.294;11.816;2022-11-20T00:42:02;100567.20;;;9.60
68939;BMP180;59064;45.294;11.816;2022-11-20T00:44:28;100570.40;;;9.60
68939;BMP180;59064;45.294;11.816;2022-11-20T00:46:53;100576.20;;;9.60
68939;BMP180;59064;45.294;11.816;2022-11-20T00:49:19;100586.40;;;9.54
68939;BMP180;59064;45.294;11.816;2022-11-20T00:51:44;100588.60;;;9.50
68939;BMP180;59064;45.294;11.816;2022-11-20T00:54:10;100588.00;;;9.50
68939;BMP180;59064;45.294;11.816;2022-11-20T00:56:35;100589.80;;;9.50
68939;BMP180;59064;45.294;11.816;2022-11-20T00:59:00;100592.40;;;9.42
68939;BMP180;59064;45.294;11.816;2022-11-20T01:01:26;100593.20;;;9.40
68939;BMP180;59064;45.294;11.816;2022-11-20T01:03:56;100599.40;;;9.40
68939;BMP180;59064;45.294;11.816;2022-11-20T01:06:25;100607.60;;;9.40
68939;BMP180;59064;45.294;11.816;2022-11-20T01:08:54;100613.60;;;9.40
68939;BMP180;59064;45.294;11.816;2022-11-20T01:11:23;100615.00;;;9.40
68939;BMP180;59064;45.294;11.816;2022-11-20T01:13:50;100615.60;;;9.40
68939;BMP180;59064;45.294;11.816;2022-11-20T01:18:47;100616.20;;;9.40
68939;BMP180;59064;45.294;11.816;2022-11-20T01:21:19;100617.20;;;9.40
68939;BMP180;59064;45.294;11.816;2022-11-20T01:23:45;100619.40;;;9.48
68939;BMP180;59064;45.294;11.816;2022-11-20T01:26:17;100621.00;;;9.50
68939;BMP180;59064;45.294;11.816;2022-11-20T01:28:43;100620.20;;;9.50
68939;BMP180;59064;45.294;11.816;2022-11-20T01:31:25;100620.80;;;9.50
68939;BMP180;59064;45.294;11.816;2022-11-20T01:33:54;100622.80;;;9.50
68939;BMP180;59064;45.294;11.816;2022-11-20T01:36:22;100624.80;;;9.60
68939;BMP180;59064;45.294;11.816;2022-11-20T01:38:51;100621.80;;;9.60
68939;BMP180;59064;45.294;11.816;2022-11-20T01:41:17;100622.40;;;9.70
68939;BMP180;59064;45.294;11.816;2022-11-20T01:44:02;100627.80;;;9.78
68939;BMP180;59064;45.294;11.816;2022-11-20T01:46:28;100628.60;;;9.80
68939;BMP180;59064;45.294;11.816;2022-11-20T01:52:16;100632.00;;;9.90
68939;BMP180;59064;45.294;11.816;2022-11-20T01:54:51;100638.60;;;9.94
68939;BMP180;59064;45.294;11.816;2022-11-20T01:57:19;100638.00;;;10.00
68939;BMP180;59064;45.294;11.816;2022-11-20T01:59:53;100629.60;;;10.00
68939;BMP180;59064;45.294;11.816;2022-11-20T02:02:21;100629.80;;;10.00
68939;BMP180;59064;45.294;11.816;2022-11-20T02:04:47;100635.00;;;10.00
68939;BMP180;59064;45.294;11.816;2022-11-20T02:07:14;100630.80;;;10.04
68939;BMP180;59064;45.294;11.816;2022-11-20T02:09:40;100635.80;;;10.06
68939;BMP180;59064;45.294;11.816;2022-11-20T02:12:06;100639.00;;;10.10
68939;BMP180;59064;45.294;11.816;2022-11-20T02:14:51;100640.00;;;10.00
68939;BMP180;59064;45.294;11.816;2022-11-20T02:17:17;100638.00;;;10.00
68939;BMP180;59064;45.294;11.816;2022-11-20T02:19:42;100641.20;;;9.98
68939;BMP180;59064;45.294;11.816;2022-11-20T02:24:39;100635.00;;;9.98
68939;BMP180;59064;45.294;11.816;2022-11-20T02:27:08;100638.20;;;9.92
68939;BMP180;59064;45.294;11.816;2022-11-20T02:30:01;100635.20;;;9.90
68939;BMP180;59064;45.294;11.816;2022-11-20T02:32:29;100634.60;;;9.80
68939;BMP180;59064;45.294;11.816;2022-11-20T02:34:55;100633.40;;;9.80
68939;BMP180;59064;45.294;11.816;2022-11-20T02:37:22;100637.20;;;9.70
68939;BMP180;59064;45.294;11.816;2022-11-20T02:39:50;100634.60;;;9.66
68939;BMP180;59064;45.294;11.816;2022-11-20T02:42:16;100633.20;;;9.60
68939;BMP180;59064;45.294;11.816;2022-11-20T02:44:42;100630.00;;;9.54
68939;BMP180;59064;45.294;11.816;2022-11-20T02:47:08;100631.60;;;9.50
68939;BMP180;59064;45.294;11.816;2022-11-20T02:49:33;100631.20;;;9.40
68939;BMP180;59064;45.294;11.816;2022-11-20T02:51:59;100634.80;;;9.30
68939;BMP180;59064;45.294;11.816;2022-11-20T02:54:25;100636.80;;;9.24
68939;BMP180;59064;45.294;11.816;2022-11-20T02:56:51;100631.60;;;9.20
68939;BMP180;59064;45.294;11.816;2022-11-20T02:59:16;100632.60;;;9.18
68939;BMP180;59064;45.294;11.816;2022-11-20T03:01:42;100633.60;;;9.10
68939;BMP180;59064;45.294;11.816;2022-11-20T03:04:08;100632.80;;;9.10
68939;BMP180;59064;45.294;11.816;2022-11-20T03:06:34;100632.60;;;9.00
68939;BMP180;59064;45.294;11.816;2022-11-20T03:08:59;100629.80;;;9.00
68939;BMP180;59064;45.294;11.816;2022-11-20T03:11:25;100630.40;;;8.96
68939;BMP180;59064;45.294;11.816;2022-11-20T03:13:50;100632.60;;;9.00
68939;BMP180;59064;45.294;11.816;2022-11-20T03:16:18;100632.60;;;8.92
68939;BMP180;59064;45.294;11.816;2022-11-20T03:18:45;100635.60;;;8.90
68939;BMP180;59064;45.294;11.816;2022-11-20T03:21:11;100636.00;;;8.90
68939;BMP180;59064;45.294;11.816;2022-11-20T03:23:38;100631.20;;;8.90
68939;BMP180;59064;45.294;11.816;2022-11-20T03:26:15;100632.20;;;8.80
68939;BMP180;59064;45.294;11.816;2022-11-20T03:28:45;100628.40;;;8.80
68939;BMP180;59064;45.294;11.816;2022-11-20T03:31:14;100639.00;;;8.80
68939;BMP180;59064;45.294;11.816;2022-11-20T03:33:41;100641.80;;;8.80
68939;BMP180;59064;45.294;11.816;2022-11-20T03:36:12;100641.80;;;8.80
68939;BMP180;59064;45.294;11.816;2022-11-20T03:38:38;100646.80;;;8.80
68939;BMP180;59064;45.294;11.816;2022-11-20T03:41:06;100652.80;;;8.80
68939;BMP180;59064;45.294;11.816;2022-11-20T03:43:32;100653.60;;;8.90
68939;BMP180;59064;45.294;11.816;2022-11-20T03:45:58;100657.60;;;8.92
68939;BMP180;59064;45.294;11.816;2022-11-20T03:48:24;100662.20;;;8.90
68939;BMP180;59064;45.294;11.816;2022-11-20T03:50:51;100664.60;;;8.90
68939;BMP180;59064;45.294;11.816;2022-11-20T03:53:16;100663.00;;;8.80
68939;BMP180;59064;45.294;11.816;2022-11-20T03:55:42;100658.40;;;8.80
68939;BMP180;59064;45.294;11.816;2022-11-20T03:58:09;100668.20;;;8.80
68939;BMP180;59064;45.294;11.816;2022-11-20T04:00:35;100665.40;;;8.80
68939;BMP180;59064;45.294;11.816;2022-11-20T04:03:01;100664.20;;;8.80
68939;BMP180;59064;45.294;11.816;2022-11-20T04:05:27;100670.00;;;8.80
68939;BMP180;59064;45.294;11.816;2022-11-20T04:07:53;100668.40;;;8.80
68939;BMP180;59064;45.294;11.816;2022-11-20T04:10:18;100672.40;;;8.80
68939;BMP180;59064;45.294;11.816;2022-11-20T04:12:44;100670.20;;;8.80
68939;BMP180;59064;45.294;11.816;2022-11-20T04:15:09;100670.60;;;8.80
68939;BMP180;59064;45.294;11.816;2022-11-20T04:17:36;100665.20;;;8.80
68939;BMP180;59064;45.294;11.816;2022-11-20T04:20:02;100669.80;;;8.70
68939;BMP180;59064;45.294;11.816;2022-11-20T04:22:28;100668.80;;;8.70
68939;BMP180;59064;45.294;11.816;2022-11-20T04:24:53;100674.00;;;8.60
68939;BMP180;59064;45.294;11.816;2022-11-20T04:27:19;100674.20;;;8.60
68939;BMP180;59064;45.294;11.816;2022-11-20T04:29:44;100677.20;;;8.60
68939;BMP180;59064;45.294;11.816;2022-11-20T04:32:10;100676.80;;;8.60
68939;BMP180;59064;45.294;11.816;2022-11-20T04:34:35;100675.80;;;8.60
68939;BMP180;59064;45.294;11.816;2022-11-20T04:37:01;100679.00;;;8.52
68939;BMP180;59064;45.294;11.816;2022-11-20T04:39:26;100677.00;;;8.50
68939;BMP180;59064;45.294;11.816;2022-11-20T04:41:52;100681.60;;;8.48
68939;BMP180;59064;45.294;11.816;2022-11-20T04:44:37;100678.80;;;8.50
68939;BMP180;59064;45.294;11.816;2022-11-20T04:47:03;100676.40;;;8.50
68939;BMP180;59064;45.294;11.816;2022-11-20T04:49:28;100677.40;;;8.40
68939;BMP180;59064;45.294;11.816;2022-11-20T04:51:54;100675.60;;;8.40
68939;BMP180;59064;45.294;11.816;2022-11-20T04:54:19;100677.20;;;8.30
68939;BMP180;59064;45.294;11.816;2022-11-20T04:56:48;100671.40;;;8.30
68939;BMP180;59064;45.294;11.816;2022-11-20T04:59:13;100678.20;;;8.30
68939;BMP180;59064;45.294;11.816;2022-11-20T05:01:39;100676.60;;;8.30
68939;BMP180;59064;45.294;11.816;2022-11-20T05:04:04;100673.80;;;8.30
68939;BMP180;59064;45.294;11.816;2022-11-20T05:06:31;100679.40;;;8.30
68939;BMP180;59064;45.294;11.816;2022-11-20T05:08:57;100681.20;;;8.30
68939;BMP180;59064;45.294;11.816;2022-11-20T05:11:22;100683.20;;;8.30
68939;BMP180;59064;45.294;11.816;2022-11-20T05:13:49;100684.00;;;8.30
68939;BMP180;59064;45.294;11.816;2022-11-20T05:16:18;100685.40;;;8.40
68939;BMP180;59064;45.294;11.816;2022-11-20T05:18:43;100687.00;;;8.40
68939;BMP180;59064;45.294;11.816;2022-11-20T05:21:10;100692.60;;;8.30
68939;BMP180;59064;45.294;11.816;2022-11-20T05:23:36;100690.00;;;8.28
68939;BMP180;59064;45.294;11.816;2022-11-20T05:26:02;100690.00;;;8.20
68939;BMP180;59064;45.294;11.816;2022-11-20T05:28:29;100693.20;;;8.20
68939;BMP180;59064;45.294;11.816;2022-11-20T05:30:55;100691.80;;;8.18
68939;BMP180;59064;45.294;11.816;2022-11-20T05:33:20;100691.00;;;8.20
68939;BMP180;59064;45.294;11.816;2022-11-20T05:35:46;100692.20;;;8.10
68939;BMP180;59064;45.294;11.816;2022-11-20T05:38:13;100695.40;;;8.10
68939;BMP180;59064;45.294;11.816;2022-11-20T05:40:38;100693.20;;;8.10
68939;BMP180;59064;45.294;11.816;2022-11-20T05:43:04;100697.20;;;8.00
68939;BMP180;59064;45.294;11.816;2022-11-20T05:45:29;100698.00;;;7.90
68939;BMP180;59064;45.294;11.816;2022-11-20T05:47:58;100696.00;;;7.82
68939;BMP180;59064;45.294;11.816;2022-11-20T05:50:24;100695.80;;;7.80
68939;BMP180;59064;45.294;11.816;2022-11-20T05:52:50;100700.40;;;7.80
68939;BMP180;59064;45.294;11.816;2022-11-20T05:55:15;100703.00;;;7.80
68939;BMP180;59064;45.294;11.816;2022-11-20T05:57:41;100702.80;;;7.82
68939;BMP180;59064;45.294;11.816;2022-11-20T06:00:07;100703.40;;;7.90
68939;BMP180;59064;45.294;11.816;2022-11-20T06:02:34;100708.20;;;7.80
68939;BMP180;59064;45.294;11.816;2022-11-20T06:05:00;100708.20;;;7.80
68939;BMP180;59064;45.294;11.816;2022-11-20T06:07:25;100713.00;;;7.80
68939;BMP180;59064;45.294;11.816;2022-11-20T06:09:51;100713.20;;;7.76
68939;BMP180;59064;45.294;11.816;2022-11-20T06:12:16;100711.80;;;7.80
68939;BMP180;59064;45.294;11.816;2022-11-20T06:14:42;100713.20;;;7.80
68939;BMP180;59064;45.294;11.816;2022-11-20T06:17:07;100716.20;;;7.80
68939;BMP180;59064;45.294;11.816;2022-11-20T06:19:33;100722.40;;;7.70
68939;BMP180;59064;45.294;11.816;2022-11-20T06:21:58;100728.00;;;7.60
68939;BMP180;59064;45.294;11.816;2022-11-20T06:24:24;100731.40;;;7.50
68939;BMP180;59064;45.294;11.816;2022-11-20T06:26:50;100730.20;;;7.38
68939;BMP180;59064;45.294;11.816;2022-11-20T06:29:16;100734.00;;;7.30
68939;BMP180;59064;45.294;11.816;2022-11-20T06:31:41;100738.80;;;7.20
68939;BMP180;59064;45.294;11.816;2022-11-20T06:34:08;100740.60;;;7.10
68939;BMP180;59064;45.294;11.816;2022-11-20T06:36:33;100739.60;;;7.00
68939;BMP180;59064;45.294;11.816;2022-11-20T06:38:59;100743.80;;;7.00
68939;BMP180;59064;45.294;11.816;2022-11-20T06:41:25;100749.80;;;6.94
68939;BMP180;59064;45.294;11.816;2022-11-20T06:43:51;100752.80;;;6.90
68939;BMP180;59064;45.294;11.816;2022-11-20T06:46:18;100758.60;;;6.90
68939;BMP180;59064;45.294;11.816;2022-11-20T06:48:43;100761.40;;;6.90
68939;BMP180;59064;45.294;11.816;2022-11-20T06:51:09;100763.40;;;6.90
68939;BMP180;59064;45.294;11.816;2022-11-20T06:53:35;100766.20;;;6.90
68939;BMP180;59064;45.294;11.816;2022-11-20T06:56:02;100768.00;;;6.90
68939;BMP180;59064;45.294;11.816;2022-11-20T06:58:29;100774.60;;;6.90
68939;BMP180;59064;45.294;11.816;2022-11-20T07:00:59;100778.60;;;6.90
68939;BMP180;59064;45.294;11.816;2022-11-20T07:03:25;100785.40;;;6.90
68939;BMP180;59064;45.294;11.816;2022-11-20T07:05:54;100788.80;;;6.90
68939;BMP180;59064;45.294;11.816;2022-11-20T07:08:20;100793.00;;;6.90
68939;BMP180;59064;45.294;11.816;2022-11-20T07:10:46;100800.40;;;6.92
68939;BMP180;59064;45.294;11.816;2022-11-20T07:13:11;100799.80;;;7.00
68939;BMP180;59064;45.294;11.816;2022-11-20T07:15:37;100802.00;;;7.00
68939;BMP180;59064;45.294;11.816;2022-11-20T07:18:02;100808.20;;;7.10
68939;BMP180;59064;45.294;11.816;2022-11-20T07:20:28;100808.60;;;7.20
68939;BMP180;59064;45.294;11.816;2022-11-20T07:22:54;100814.40;;;7.30
68939;BMP180;59064;45.294;11.816;2022-11-20T07:25:21;100815.80;;;7.30
68939;BMP180;59064;45.294;11.816;2022-11-20T07:27:47;100817.20;;;7.30
68939;BMP180;59064;45.294;11.816;2022-11-20T07:30:13;100824.60;;;7.30
68939;BMP180;59064;45.294;11.816;2022-11-20T07:32:39;100823.60;;;7.40
68939;BMP180;59064;45.294;11.816;2022-11-20T07:35:05;100825.00;;;7.44
68939;BMP180;59064;45.294;11.816;2022-11-20T07:37:34;100830.40;;;7.50
68939;BMP180;59064;45.294;11.816;2022-11-20T07:39:59;100832.40;;;7.50
68939;BMP180;59064;45.294;11.816;2022-11-20T07:42:25;100837.60;;;7.58
68939;BMP180;59064;45.294;11.816;2022-11-20T07:44:50;100839.80;;;7.70
68939;BMP180;59064;45.294;11.816;2022-11-20T07:47:19;100848.60;;;7.98
68939;BMP180;59064;45.294;11.816;2022-11-20T07:49:46;100842.40;;;8.20
68939;BMP180;59064;45.294;11.816;2022-11-20T07:52:11;100848.20;;;8.50
68939;BMP180;59064;45.294;11.816;2022-11-20T07:54:37;100847.20;;;8.80
68939;BMP180;59064;45.294;11.816;2022-11-20T07:57:03;100850.40;;;9.12
68939;BMP180;59064;45.294;11.816;2022-11-20T07:59:29;100853.40;;;9.50
68939;BMP180;59064;45.294;11.816;2022-11-20T08:01:54;100857.80;;;9.82
68939;BMP180;59064;45.294;11.816;2022-11-20T08:04:20;100858.80;;;10.20
68939;BMP180;59064;45.294;11.816;2022-11-20T08:06:45;100864.40;;;10.50
68939;BMP180;59064;45.294;11.816;2022-11-20T08:09:11;100862.40;;;10.66
68939;BMP180;59064;45.294;11.816;2022-11-20T08:11:36;100865.40;;;10.98
68939;BMP180;59064;45.294;11.816;2022-11-20T08:14:21;100860.00;;;11.38
68939;BMP180;59064;45.294;11.816;2022-11-20T08:16:47;100870.40;;;11.60
68939;BMP180;59064;45.294;11.816;2022-11-20T08:19:15;100866.60;;;11.90
68939;BMP180;59064;45.294;11.816;2022-11-20T08:21:41;100876.80;;;12.00
68939;BMP180;59064;45.294;11.816;2022-11-20T08:24:07;100880.00;;;12.20
68939;BMP180;59064;45.294;11.816;2022-11-20T08:26:34;100881.60;;;12.30
68939;BMP180;59064;45.294;11.816;2022-11-20T08:28:59;100889.00;;;12.38
68939;BMP180;59064;45.294;11.816;2022-11-20T08:31:26;100886.60;;;12.44
68939;BMP180;59064;45.294;11.816;2022-11-20T08:33:52;100887.60;;;12.68
68939;BMP180;59064;45.294;11.816;2022-11-20T08:36:20;100887.40;;;12.90
68939;BMP180;59064;45.294;11.816;2022-11-20T08:38:50;100888.20;;;13.20
68939;BMP180;59064;45.294;11.816;2022-11-20T08:41:16;100891.60;;;13.50
68939;BMP180;59064;45.294;11.816;2022-11-20T08:44:10;100898.20;;;13.76
68939;BMP180;59064;45.294;11.816;2022-11-20T08:46:40;100901.60;;;13.90
68939;BMP180;59064;45.294;11.816;2022-11-20T08:49:08;100905.60;;;14.00
68939;BMP180;59064;45.294;11.816;2022-11-20T08:51:38;100910.80;;;14.02
68939;BMP180;59064;45.294;11.816;2022-11-20T08:54:04;100912.60;;;14.30
68939;BMP180;59064;45.294;11.816;2022-11-20T08:56:30;100914.60;;;14.64
68939;BMP180;59064;45.294;11.816;2022-11-20T08:58:59;100920.80;;;14.90
68939;BMP180;59064;45.294;11.816;2022-11-20T09:01:26;100921.60;;;15.18
68939;BMP180;59064;45.294;11.816;2022-11-20T09:03:51;100923.20;;;15.50
68939;BMP180;59064;45.294;11.816;2022-11-20T09:06:17;100928.40;;;15.82
68939;BMP180;59064;45.294;11.816;2022-11-20T09:08:44;100926.80;;;15.90
68939;BMP180;59064;45.294;11.816;2022-11-20T09:11:10;100927.00;;;15.90
68939;BMP180;59064;45.294;11.816;2022-11-20T09:13:36;100927.20;;;16.00
68939;BMP180;59064;45.294;11.816;2022-11-20T09:16:04;100928.60;;;15.90
68939;BMP180;59064;45.294;11.816;2022-11-20T09:18:31;100930.40;;;15.92
68939;BMP180;59064;45.294;11.816;2022-11-20T09:20:58;100933.60;;;15.94
68939;BMP180;59064;45.294;11.816;2022-11-20T09:23:25;100934.00;;;16.00
68939;BMP180;59064;45.294;11.816;2022-11-20T09:25:51;100935.40;;;15.88
68939;BMP180;59064;45.294;11.816;2022-11-20T09:28:18;100937.20;;;15.80
68939;BMP180;59064;45.294;11.816;2022-11-20T09:30:44;100932.20;;;15.70
68939;BMP180;59064;45.294;11.816;2022-11-20T09:33:10;100935.60;;;15.60
68939;BMP180;59064;45.294;11.816;2022-11-20T09:35:35;100935.60;;;15.52
68939;BMP180;59064;45.294;11.816;2022-11-20T09:38:05;100941.60;;;15.60
68939;BMP180;59064;45.294;11.816;2022-11-20T09:40:32;100934.20;;;15.50
68939;BMP180;59064;45.294;11.816;2022-11-20T09:53:28;100944.60;;;15.40
68939;BMP180;59064;45.294;11.816;2022-11-20T09:55:56;100942.80;;;15.30
68939;BMP180;59064;45.294;11.816;2022-11-20T10:01:08;100938.00;;;15.30
68939;BMP180;59064;45.294;11.816;2022-11-20T10:06:18;100940.80;;;15.40
68939;BMP180;59064;45.294;11.816;2022-11-20T10:08:55;100936.80;;;15.40
68939;BMP180;59064;45.294;11.816;2022-11-20T10:14:15;100937.60;;;15.50
68939;BMP180;59064;45.294;11.816;2022-11-20T10:31:02;100936.80;;;15.40
68939;BMP180;59064;45.294;11.816;2022-11-20T10:33:35;100933.80;;;15.50
68939;BMP180;59064;45.294;11.816;2022-11-20T10:36:13;100931.40;;;15.50
68939;BMP180;59064;45.294;11.816;2022-11-20T10:38:47;100931.00;;;15.60
68939;BMP180;59064;45.294;11.816;2022-11-20T10:41:21;100928.60;;;15.70
68939;BMP180;59064;45.294;11.816;2022-11-20T10:44:05;100925.20;;;15.78
68939;BMP180;59064;45.294;11.816;2022-11-20T10:49:54;100921.40;;;16.00
68939;BMP180;59064;45.294;11.816;2022-11-20T10:55:25;100918.60;;;16.10
68939;BMP180;59064;45.294;11.816;2022-11-20T10:58:10;100921.00;;;16.10
68939;BMP180;59064;45.294;11.816;2022-11-20T11:00:47;100924.20;;;16.08
68939;BMP180;59064;45.294;11.816;2022-11-20T11:03:26;100926.40;;;16.10
68939;BMP180;59064;45.294;11.816;2022-11-20T11:06:46;100924.00;;;16.30
68939;BMP180;59064;45.294;11.816;2022-11-20T11:09:11;100922.60;;;16.30
68939;BMP180;59064;45.294;11.816;2022-11-20T11:11:39;100924.00;;;16.30
68939;BMP180;59064;45.294;11.816;2022-11-20T11:14:09;100918.60;;;16.40
68939;BMP180;59064;45.294;11.816;2022-11-20T11:16:35;100919.20;;;16.40
68939;BMP180;59064;45.294;11.816;2022-11-20T11:19:13;100918.20;;;16.40
68939;BMP180;59064;45.294;11.816;2022-11-20T11:21:38;100915.60;;;16.50
68939;BMP180;59064;45.294;11.816;2022-11-20T11:27:01;100908.80;;;16.84
68939;BMP180;59064;45.294;11.816;2022-11-20T11:29:32;100905.60;;;16.82
68939;BMP180;59064;45.294;11.816;2022-11-20T11:32:10;100907.00;;;16.60
68939;BMP180;59064;45.294;11.816;2022-11-20T11:34:38;100904.00;;;16.70
68939;BMP180;59064;45.294;11.816;2022-11-20T11:37:05;100904.00;;;16.60
68939;BMP180;59064;45.294;11.816;2022-11-20T11:39:41;100904.80;;;16.80
68939;BMP180;59064;45.294;11.816;2022-11-20T11:42:12;100902.40;;;16.82
68939;BMP180;59064;45.294;11.816;2022-11-20T11:44:44;100895.80;;;16.60
68939;BMP180;59064;45.294;11.816;2022-11-20T11:53:14;100898.60;;;16.80
68939;BMP180;59064;45.294;11.816;2022-11-20T11:56:08;100902.20;;;16.86
68939;BMP180;59064;45.294;11.816;2022-11-20T11:58:50;100895.80;;;16.90
68939;BMP180;59064;45.294;11.816;2022-11-20T12:01:33;100891.20;;;17.06
68939;BMP180;59064;45.294;11.816;2022-11-20T12:07:20;100888.20;;;17.22
68939;BMP180;59064;45.294;11.816;2022-11-20T12:09:53;100887.20;;;17.28
68939;BMP180;59064;45.294;11.816;2022-11-20T12:12:25;100887.00;;;17.30
68939;BMP180;59064;45.294;11.816;2022-11-20T12:14:53;100882.00;;;17.34
68939;BMP180;59064;45.294;11.816;2022-11-20T12:17:20;100890.00;;;17.60
68939;BMP180;59064;45.294;11.816;2022-11-20T12:19:45;100884.80;;;17.60
68939;BMP180;59064;45.294;11.816;2022-11-20T12:22:32;100885.80;;;17.60
68939;BMP180;59064;45.294;11.816;2022-11-20T12:25:11;100882.00;;;17.76
68939;BMP180;59064;45.294;11.816;2022-11-20T12:30:41;100880.60;;;18.16
68939;BMP180;59064;45.294;11.816;2022-11-20T12:33:49;100882.40;;;18.30
68939;BMP180;59064;45.294;11.816;2022-11-20T12:36:44;100879.40;;;18.36
68939;BMP180;59064;45.294;11.816;2022-11-20T12:48:25;100869.00;;;18.20
68939;BMP180;59064;45.294;11.816;2022-11-20T13:07:38;100863.60;;;19.20
68939;BMP180;59064;45.294;11.816;2022-11-20T13:10:06;100868.00;;;19.20
68939;BMP180;59064;45.294;11.816;2022-11-20T13:12:51;100862.80;;;18.90
68939;BMP180;59064;45.294;11.816;2022-11-20T13:15:59;100862.00;;;18.80
68939;BMP180;59064;45.294;11.816;2022-11-20T13:18:26;100855.60;;;18.62
68939;BMP180;59064;45.294;11.816;2022-11-20T13:20:52;100856.40;;;18.50
68939;BMP180;59064;45.294;11.816;2022-11-20T13:23:26;100853.40;;;18.34
68939;BMP180;59064;45.294;11.816;2022-11-20T13:26:16;100852.20;;;18.24
68939;BMP180;59064;45.294;11.816;2022-11-20T13:28:43;100850.40;;;18.10
68939;BMP180;59064;45.294;11.816;2022-11-20T13:31:21;100840.80;;;18.20
68939;BMP180;59064;45.294;11.816;2022-11-20T13:33:51;100833.00;;;18.30
68939;BMP180;59064;45.294;11.816;2022-11-20T13:36:25;100833.20;;;18.38
68939;BMP180;59064;45.294;11.816;2022-11-20T13:39:09;100829.00;;;18.26
68939;BMP180;59064;45.294;11.816;2022-11-20T13:41:36;100833.40;;;18.20
68939;BMP180;59064;45.294;11.816;2022-11-20T13:46:54;100838.40;;;17.50
68939;BMP180;59064;45.294;11.816;2022-11-20T13:49:31;100833.60;;;17.02
68939;BMP180;59064;45.294;11.816;2022-11-20T13:54:59;100836.00;;;16.40
68939;BMP180;59064;45.294;11.816;2022-11-20T13:57:39;100833.80;;;16.28
68939;BMP180;59064;45.294;11.816;2022-11-20T14:02:35;100831.60;;;15.80
68939;BMP180;59064;45.294;11.816;2022-11-20T14:05:01;100830.60;;;15.80
68939;BMP180;59064;45.294;11.816;2022-11-20T14:07:40;100829.80;;;15.80
68939;BMP180;59064;45.294;11.816;2022-11-20T14:10:23;100828.40;;;16.00
68939;BMP180;59064;45.294;11.816;2022-11-20T14:12:49;100827.20;;;16.22
68939;BMP180;59064;45.294;11.816;2022-11-20T14:15:30;100826.00;;;16.44
68939;BMP180;59064;45.294;11.816;2022-11-20T14:17:57;100827.40;;;16.60
68939;BMP180;59064;45.294;11.816;2022-11-20T14:20:27;100823.60;;;16.48
68939;BMP180;59064;45.294;11.816;2022-11-20T14:22:55;100822.60;;;16.40
68939;BMP180;59064;45.294;11.816;2022-11-20T14:25:25;100825.80;;;16.60
68939;BMP180;59064;45.294;11.816;2022-11-20T14:27:59;100823.00;;;16.86
68939;BMP180;59064;45.294;11.816;2022-11-20T14:33:02;100828.00;;;17.10
68939;BMP180;59064;45.294;11.816;2022-11-20T14:35:35;100833.40;;;17.02
68939;BMP180;59064;45.294;11.816;2022-11-20T14:38:02;100839.40;;;17.00
68939;BMP180;59064;45.294;11.816;2022-11-20T14:40:31;100838.80;;;17.00
68939;BMP180;59064;45.294;11.816;2022-11-20T14:42:58;100846.00;;;17.00
68939;BMP180;59064;45.294;11.816;2022-11-20T14:45:25;100845.40;;;16.90
68939;BMP180;59064;45.294;11.816;2022-11-20T14:47:52;100844.40;;;16.90
68939;BMP180;59064;45.294;11.816;2022-11-20T14:50:22;100842.80;;;16.88
68939;BMP180;59064;45.294;11.816;2022-11-20T14:52:59;100840.00;;;16.82
68939;BMP180;59064;45.294;11.816;2022-11-20T14:55:31;100843.80;;;16.80
68939;BMP180;59064;45.294;11.816;2022-11-20T14:58:02;100849.20;;;16.70
68939;BMP180;59064;45.294;11.816;2022-11-20T15:00:30;100849.80;;;16.60
68939;BMP180;59064;45.294;11.816;2022-11-20T15:02:56;100850.80;;;16.50
68939;BMP180;59064;45.294;11.816;2022-11-20T15:05:26;100856.00;;;16.34
68939;BMP180;59064;45.294;11.816;2022-11-20T15:08:10;100861.60;;;16.20
68939;BMP180;59064;45.294;11.816;2022-11-20T15:10:36;100863.80;;;16.00
68939;BMP180;59064;45.294;11.816;2022-11-20T15:13:12;100865.00;;;15.84
68939;BMP180;59064;45.294;11.816;2022-11-20T15:15:48;100862.00;;;15.70
68939;BMP180;59064;45.294;11.816;2022-11-20T15:18:19;100859.60;;;15.48
68939;BMP180;59064;45.294;11.816;2022-11-20T15:20:46;100858.20;;;15.22
68939;BMP180;59064;45.294;11.816;2022-11-20T15:23:13;100862.00;;;15.00
68939;BMP180;59064;45.294;11.816;2022-11-20T15:25:40;100865.40;;;14.80
68939;BMP180;59064;45.294;11.816;2022-11-20T15:28:36;100863.80;;;14.50
68939;BMP180;59064;45.294;11.816;2022-11-20T15:31:03;100869.80;;;14.30
68939;BMP180;59064;45.294;11.816;2022-11-20T15:33:30;100870.80;;;13.96
68939;BMP180;59064;45.294;11.816;2022-11-20T15:35:56;100876.40;;;13.66
68939;BMP180;59064;45.294;11.816;2022-11-20T15:38:22;100872.80;;;13.34
68939;BMP180;59064;45.294;11.816;2022-11-20T15:40:48;100867.60;;;13.10